createdAt,value
2023-05-08T00:00:58.762Z,55.39
2023-05-08T00:03:29.071Z,55.06
2023-05-08T00:05:57.897Z,54.44
2023-05-08T00:08:26.832Z,54.33
2023-05-08T00:10:55.411Z,54.73
2023-05-08T00:13:24.187Z,54.96
2023-05-08T00:15:54.344Z,54.85
2023-05-08T00:18:23.004Z,54.51
2023-05-08T00:20:52.940Z,54.67
2023-05-08T00:23:22.354Z,54.60
2023-05-08T00:25:51.044Z,54.80
2023-05-08T00:28:19.609Z,55.17
2023-05-08T00:30:48.607Z,55.07
2023-05-08T00:33:17.655Z,54.82
2023-05-08T00:35:46.527Z,55.60
2023-05-08T00:38:17.134Z,55.77
2023-05-08T00:40:46.124Z,55.29
2023-05-08T00:43:15.040Z,55.07
2023-05-08T00:45:44.022Z,55.08
2023-05-08T00:48:12.673Z,55.51
2023-05-08T00:50:42.442Z,55.88
2023-05-08T00:53:13.124Z,56.05
2023-05-08T00:55:43.440Z,56.41
2023-05-08T00:58:12.970Z,56.56
2023-05-08T01:00:43.217Z,57.29
2023-05-08T01:03:13.257Z,56.92
2023-05-08T01:05:42.343Z,57.05
2023-05-08T01:08:11.172Z,57.29
2023-05-08T01:10:48.170Z,57.49
2023-05-08T01:13:28.768Z,58.77
2023-05-08T01:16:03.393Z,58.26
2023-05-08T01:18:38.108Z,57.22
2023-05-08T01:21:14.426Z,57.77
2023-05-08T01:23:58.173Z,57.31
2023-05-08T01:27:18.106Z,57.58
2023-05-08T01:30:18.041Z,57.25
2023-05-08T01:32:52.468Z,57.58
2023-05-08T01:35:25.476Z,58.00
2023-05-08T01:37:59.694Z,58.70
2023-05-08T01:40:34.685Z,58.59
2023-05-08T01:43:14.152Z,58.65
2023-05-08T01:45:46.969Z,59.57
2023-05-08T01:48:20.557Z,59.34
2023-05-08T01:50:50.895Z,59.10
2023-05-08T01:53:27.175Z,58.54
2023-05-08T01:56:01.589Z,59.15
2023-05-08T01:58:32.077Z,59.10
2023-05-08T02:01:03.279Z,59.58
2023-05-08T02:03:35.857Z,59.41
2023-05-08T02:06:04.902Z,59.01
2023-05-08T02:08:35.066Z,59.02
2023-05-08T02:11:08.073Z,59.42
2023-05-08T02:13:37.565Z,59.10
2023-05-08T02:16:08.483Z,58.70
2023-05-08T02:18:40.140Z,58.57
2023-05-08T02:21:10.412Z,59.27
2023-05-08T02:23:39.660Z,59.61
2023-05-08T02:26:08.844Z,59.54
2023-05-08T02:28:38.020Z,59.32
2023-05-08T02:31:07.186Z,59.83
2023-05-08T02:33:36.100Z,59.31
2023-05-08T02:36:07.502Z,59.66
2023-05-08T02:38:36.599Z,60.33
2023-05-08T02:41:07.120Z,59.90
2023-05-08T02:43:36.125Z,59.84
2023-05-08T02:46:11.834Z,60.03
2023-05-08T02:48:48.249Z,60.04
2023-05-08T02:51:25.265Z,60.25
2023-05-08T02:53:59.908Z,59.55
2023-05-08T02:56:37.603Z,60.03
2023-05-08T02:59:16.760Z,60.67
2023-05-08T03:01:52.010Z,59.96
2023-05-08T03:04:30.984Z,60.67
2023-05-08T03:07:02.316Z,60.74
2023-05-08T03:09:43.620Z,61.08
2023-05-08T03:12:16.586Z,60.87
2023-05-08T03:14:48.528Z,61.74
2023-05-08T03:17:18.432Z,61.21
2023-05-08T03:19:52.022Z,61.05
2023-05-08T03:22:24.404Z,61.11
2023-05-08T03:24:54.958Z,60.93
2023-05-08T03:27:25.144Z,59.98
2023-05-08T03:29:55.000Z,60.87
2023-05-08T03:32:28.266Z,60.65
2023-05-08T03:34:59.982Z,61.30
2023-05-08T03:37:30.591Z,61.81
2023-05-08T03:39:59.498Z,61.23
2023-05-08T03:42:28.792Z,62.03
2023-05-08T03:44:58.888Z,61.49
2023-05-08T03:47:28.932Z,62.07
2023-05-08T03:49:58.655Z,61.99
2023-05-08T03:52:27.641Z,62.31
2023-05-08T03:54:57.625Z,61.74
2023-05-08T03:57:29.522Z,61.55
2023-05-08T04:00:04.356Z,61.76
2023-05-08T04:02:47.660Z,62.24
2023-05-08T04:05:22.619Z,62.36
2023-05-08T04:07:54.881Z,61.90
2023-05-08T04:10:33.452Z,62.38
2023-05-08T04:13:06.709Z,62.05
2023-05-08T04:15:42.306Z,61.29
2023-05-08T04:18:16.207Z,61.09
2023-05-08T04:20:48.470Z,60.93
2023-05-08T04:23:21.437Z,61.17
2023-05-08T04:25:53.572Z,61.13
2023-05-08T04:28:23.075Z,61.46
2023-05-08T04:30:52.901Z,61.05
2023-05-08T04:33:22.232Z,61.12
2023-05-08T04:35:51.493Z,61.61
2023-05-08T04:38:20.736Z,61.75
2023-05-08T04:40:49.592Z,61.31
2023-05-08T04:43:19.770Z,61.65
2023-05-08T04:45:48.817Z,62.09
2023-05-08T04:48:19.007Z,62.31
2023-05-08T04:50:48.016Z,61.14
2023-05-08T04:53:16.795Z,60.21
2023-05-08T04:55:45.407Z,59.59
2023-05-08T04:58:14.426Z,59.56
2023-05-08T05:00:44.599Z,60.15
2023-05-08T05:03:13.397Z,60.97
2023-05-08T05:05:42.494Z,60.01
2023-05-08T05:08:11.214Z,59.90
2023-05-08T05:10:40.092Z,59.23
2023-05-08T05:13:09.544Z,60.23
2023-05-08T05:15:38.301Z,60.20
2023-05-08T05:18:08.367Z,60.92
2023-05-08T05:20:37.709Z,59.42
2023-05-08T05:23:06.643Z,59.85
2023-05-08T05:25:36.084Z,59.49
2023-05-08T05:28:05.903Z,58.69
2023-05-08T05:30:34.896Z,58.27
2023-05-08T05:33:03.984Z,56.03
2023-05-08T05:35:34.698Z,56.99
2023-05-08T05:38:03.462Z,57.35
2023-05-08T05:40:32.185Z,56.96
2023-05-08T05:43:01.213Z,57.02
2023-05-08T05:45:33.785Z,56.84
2023-05-08T05:48:03.297Z,56.37
2023-05-08T05:50:34.788Z,56.56
2023-05-08T05:53:03.986Z,55.71
2023-05-08T05:55:32.728Z,54.20
2023-05-08T05:58:01.807Z,54.73
2023-05-08T06:00:31.362Z,52.70
2023-05-08T06:03:02.329Z,53.97
2023-05-08T06:05:31.751Z,54.16
2023-05-08T06:08:02.119Z,52.51
2023-05-08T06:10:30.963Z,52.91
2023-05-08T06:13:00.131Z,51.29
2023-05-08T06:15:29.116Z,51.61
2023-05-08T06:17:58.273Z,50.89
2023-05-08T06:20:27.442Z,52.02
2023-05-08T06:22:56.088Z,49.76
2023-05-08T06:25:28.177Z,48.46
2023-05-08T06:27:57.176Z,47.78
2023-05-08T06:30:25.883Z,46.86
2023-05-08T06:32:54.577Z,47.26
2023-05-08T06:35:23.939Z,46.96
2023-05-08T06:37:52.733Z,45.48
2023-05-08T06:40:21.666Z,48.04
2023-05-08T06:42:51.944Z,47.52
2023-05-08T06:45:20.813Z,46.18
2023-05-08T06:47:49.450Z,46.05
2023-05-08T06:50:20.103Z,46.20
2023-05-08T06:52:48.750Z,46.81
2023-05-08T06:55:17.438Z,46.17
2023-05-08T06:57:46.389Z,46.83
2023-05-08T07:00:17.008Z,46.50
2023-05-08T07:02:45.930Z,46.42
2023-05-08T07:05:15.247Z,46.93
2023-05-08T07:07:44.132Z,46.31
2023-05-08T07:10:13.137Z,46.56
2023-05-08T07:12:42.133Z,46.56
2023-05-08T07:15:24.789Z,46.73
2023-05-08T07:17:56.812Z,45.18
2023-05-08T07:20:25.757Z,44.77
2023-05-08T07:22:54.474Z,43.60
2023-05-08T07:25:26.228Z,45.35
2023-05-08T07:27:55.014Z,44.12
2023-05-08T07:30:24.149Z,44.42
2023-05-08T07:32:52.965Z,44.52
2023-05-08T07:35:23.115Z,44.93
2023-05-08T07:37:52.040Z,45.54
2023-05-08T07:40:20.799Z,44.59
2023-05-08T07:42:49.499Z,44.33
2023-05-08T07:45:18.440Z,44.89
2023-05-08T07:47:51.411Z,44.16
2023-05-08T07:50:20.485Z,42.29
2023-05-08T07:52:50.902Z,41.37
2023-05-08T07:55:20.662Z,41.35
2023-05-08T07:57:49.476Z,44.06
2023-05-08T08:00:18.911Z,42.71
2023-05-08T08:02:48.038Z,44.05
2023-05-08T08:05:17.085Z,44.08
2023-05-08T08:07:45.960Z,44.18
2023-05-08T08:10:16.299Z,43.81
2023-05-08T08:12:45.645Z,43.14
2023-05-08T08:15:14.431Z,43.83
2023-05-08T08:17:43.460Z,44.22
2023-05-08T08:20:13.107Z,44.95
2023-05-08T08:22:41.797Z,43.71
2023-05-08T08:25:11.185Z,43.42
2023-05-08T08:27:41.506Z,42.50
2023-05-08T08:30:17.466Z,43.03
2023-05-08T08:32:47.479Z,43.79
2023-05-08T08:35:16.894Z,44.33
2023-05-08T08:37:45.922Z,42.33
2023-05-08T08:40:14.868Z,42.85
2023-05-08T08:42:45.160Z,41.77
2023-05-08T08:45:14.253Z,42.47
2023-05-08T08:47:46.295Z,43.33
2023-05-08T08:50:16.347Z,42.91
2023-05-08T08:52:49.976Z,43.71
2023-05-08T08:55:19.561Z,43.41
2023-05-08T08:57:56.393Z,42.30
2023-05-08T09:00:29.660Z,42.59
2023-05-08T09:02:59.041Z,40.89
2023-05-08T09:05:27.783Z,40.12
2023-05-08T09:07:56.990Z,40.65
2023-05-08T09:10:26.177Z,40.50
2023-05-08T09:12:56.332Z,40.39
2023-05-08T09:15:25.148Z,40.02
2023-05-08T09:17:54.127Z,39.89
2023-05-08T09:20:22.825Z,40.42
2023-05-08T09:22:52.615Z,40.04
2023-05-08T09:25:21.832Z,40.70
2023-05-08T09:27:50.807Z,39.09
2023-05-08T09:30:20.836Z,37.47
2023-05-08T09:32:50.034Z,37.69
2023-05-08T09:35:18.790Z,37.59
2023-05-08T09:37:47.630Z,37.19
2023-05-08T09:40:18.264Z,36.07
2023-05-08T09:42:48.513Z,35.92
2023-05-08T09:45:29.373Z,34.73
2023-05-08T09:47:58.319Z,34.97
2023-05-08T09:50:27.844Z,35.08
2023-05-08T09:53:00.544Z,35.52
2023-05-08T09:55:29.595Z,35.85
2023-05-08T09:57:59.438Z,36.18
2023-05-08T10:00:30.312Z,34.89
2023-05-08T10:03:00.611Z,36.49
2023-05-08T10:05:31.794Z,35.13
2023-05-08T10:08:19.363Z,34.63
2023-05-08T10:10:48.124Z,33.46
2023-05-08T10:13:17.120Z,35.08
2023-05-08T10:15:49.444Z,34.99
2023-05-08T10:18:19.052Z,33.58
2023-05-08T10:20:49.544Z,33.92
2023-05-08T10:23:19.245Z,32.60
2023-05-08T10:25:49.670Z,30.69
2023-05-08T10:28:25.370Z,33.05
2023-05-08T10:30:57.534Z,32.73
2023-05-08T10:33:32.094Z,33.46
2023-05-08T10:36:01.420Z,33.85
2023-05-08T10:38:32.110Z,34.31
2023-05-08T10:41:01.600Z,30.92
2023-05-08T10:43:31.344Z,31.59
2023-05-08T10:46:05.956Z,31.73
2023-05-08T10:48:43.596Z,33.57
2023-05-08T10:51:16.295Z,31.43
2023-05-08T10:53:49.327Z,31.74
2023-05-08T10:56:18.041Z,32.69
2023-05-08T10:58:46.897Z,31.63
2023-05-08T11:01:17.919Z,32.99
2023-05-08T11:03:50.584Z,31.08
2023-05-08T11:06:40.548Z,30.42
2023-05-08T11:09:16.240Z,30.73
2023-05-08T11:11:53.987Z,31.62
2023-05-08T11:14:24.009Z,31.61
2023-05-08T11:17:08.409Z,29.80
2023-05-08T11:19:38.436Z,29.96
2023-05-08T11:22:18.225Z,29.73
2023-05-08T11:24:53.577Z,29.77
2023-05-08T11:28:04.533Z,29.12
2023-05-08T11:30:40.095Z,29.19
2023-05-08T11:33:17.400Z,28.67
2023-05-08T11:35:57.305Z,28.72
2023-05-08T11:38:28.341Z,29.47
2023-05-08T11:41:03.637Z,28.89
2023-05-08T11:43:54.174Z,28.21
2023-05-08T11:46:23.227Z,28.58
2023-05-08T11:48:59.930Z,29.03
2023-05-08T11:51:34.803Z,27.32
2023-05-08T11:54:03.835Z,25.78
2023-05-08T11:56:32.848Z,27.83
2023-05-08T11:59:05.529Z,28.69
2023-05-08T12:01:34.398Z,26.75
2023-05-08T12:04:06.381Z,27.46
2023-05-08T12:06:37.711Z,27.14
2023-05-08T12:09:12.276Z,26.34
2023-05-08T12:11:43.804Z,27.35
2023-05-08T12:14:15.055Z,27.03
2023-05-08T12:16:43.752Z,26.31
2023-05-08T12:19:14.749Z,26.10
2023-05-08T12:21:47.844Z,27.00
2023-05-08T12:24:22.740Z,27.07
2023-05-08T12:26:55.381Z,27.12
2023-05-08T12:29:25.140Z,26.49
2023-05-08T12:31:54.393Z,27.15
2023-05-08T12:34:25.038Z,27.36
2023-05-08T12:37:03.498Z,28.21
2023-05-08T12:39:37.489Z,27.88
2023-05-08T12:42:06.797Z,27.89
2023-05-08T12:44:35.495Z,27.37
2023-05-08T12:47:06.256Z,26.18
2023-05-08T12:49:38.997Z,25.07
2023-05-08T12:52:11.787Z,25.11
2023-05-08T12:54:42.240Z,26.35
2023-05-08T12:57:12.148Z,26.51
2023-05-08T12:59:41.951Z,26.39
2023-05-08T13:02:15.246Z,26.85
2023-05-08T13:04:45.917Z,24.51
2023-05-08T13:07:14.942Z,24.97
2023-05-08T13:09:57.478Z,25.32
2023-05-08T13:12:26.245Z,23.98
2023-05-08T13:14:55.288Z,23.50
2023-05-08T13:17:24.004Z,25.15
2023-05-08T13:19:54.138Z,25.57
2023-05-08T13:22:23.239Z,24.24
2023-05-08T13:24:51.874Z,24.55
2023-05-08T13:27:20.599Z,23.88
2023-05-08T13:29:49.493Z,24.32
2023-05-08T13:32:18.135Z,23.69
2023-05-08T13:34:50.169Z,23.15
2023-05-08T13:37:21.323Z,24.26
2023-05-08T13:39:49.935Z,22.41
2023-05-08T13:42:18.618Z,22.25
2023-05-08T13:44:47.459Z,23.31
2023-05-08T13:47:16.049Z,22.75
2023-05-08T13:49:46.984Z,22.30
2023-05-08T13:52:15.963Z,23.11
2023-05-08T13:54:46.018Z,22.18
2023-05-08T13:57:14.706Z,21.42
2023-05-08T13:59:43.620Z,21.51
2023-05-08T14:02:12.531Z,21.76
2023-05-08T14:04:41.757Z,21.95
2023-05-08T14:07:10.711Z,21.96
2023-05-08T14:09:47.047Z,20.62
2023-05-08T14:12:16.437Z,21.09
2023-05-08T14:14:45.080Z,20.66
2023-05-08T14:17:14.029Z,20.13
2023-05-08T14:19:42.966Z,20.03
2023-05-08T14:22:11.648Z,20.43
2023-05-08T14:24:40.461Z,21.05
2023-05-08T14:27:10.860Z,20.18
2023-05-08T14:29:42.508Z,19.90
2023-05-08T14:32:11.623Z,19.15
2023-05-08T14:34:40.255Z,18.76
2023-05-08T14:37:08.927Z,18.75
2023-05-08T14:39:38.549Z,18.05
2023-05-08T14:42:22.251Z,17.83
2023-05-08T14:44:55.887Z,17.19
2023-05-08T14:47:24.702Z,18.26
2023-05-08T14:49:54.485Z,18.54
2023-05-08T14:52:23.102Z,19.06
2023-05-08T14:54:53.627Z,18.59
2023-05-08T14:57:22.776Z,16.95
2023-05-08T14:59:55.338Z,17.51
2023-05-08T15:02:24.596Z,18.32
2023-05-08T15:04:53.327Z,17.83
2023-05-08T15:07:21.943Z,17.26
2023-05-08T15:09:50.852Z,16.78
2023-05-08T15:12:19.490Z,17.11
2023-05-08T15:14:48.130Z,16.99
2023-05-08T15:17:18.603Z,16.59
2023-05-08T15:19:47.304Z,16.51
2023-05-08T15:22:16.054Z,15.48
2023-05-08T15:24:45.174Z,15.42
2023-05-08T15:27:14.203Z,15.81
2023-05-08T15:29:42.816Z,15.59
2023-05-08T15:32:11.711Z,16.10
2023-05-08T15:34:41.735Z,15.09
2023-05-08T15:37:10.358Z,14.87
2023-05-08T15:39:39.638Z,15.70
2023-05-08T15:42:08.333Z,16.65
2023-05-08T15:44:54.023Z,17.70
2023-05-08T15:47:23.975Z,17.36
2023-05-08T15:49:54.019Z,17.15
2023-05-08T15:52:23.585Z,16.28
2023-05-08T15:54:52.232Z,15.49
2023-05-08T15:57:20.870Z,15.74
2023-05-08T15:59:49.851Z,16.06
2023-05-08T16:02:18.523Z,15.90
2023-05-08T16:04:47.530Z,16.67
2023-05-08T16:07:17.456Z,16.49
2023-05-08T16:09:49.932Z,17.16
2023-05-08T16:12:19.786Z,17.32
2023-05-08T16:14:48.477Z,17.44
2023-05-08T16:17:17.679Z,17.70
2023-05-08T16:19:46.539Z,18.06
2023-05-08T16:22:15.119Z,17.84
2023-05-08T16:24:45.045Z,18.42
2023-05-08T16:27:13.963Z,20.17
2023-05-08T16:29:42.985Z,19.18
2023-05-08T16:32:11.892Z,19.91
2023-05-08T16:34:40.774Z,21.48
2023-05-08T16:37:09.646Z,22.33
2023-05-08T16:39:38.400Z,23.84
2023-05-08T16:42:08.912Z,25.79
2023-05-08T16:44:37.622Z,26.00
2023-05-08T16:47:06.464Z,28.23
2023-05-08T16:49:35.494Z,27.55
2023-05-08T16:52:04.231Z,31.89
2023-05-08T16:54:34.919Z,32.56
2023-05-08T16:57:03.908Z,31.75
2023-05-08T16:59:33.938Z,32.66
2023-05-08T17:02:02.601Z,32.07
2023-05-08T17:04:31.695Z,32.31
2023-05-08T17:07:00.570Z,32.20
2023-05-08T17:09:29.732Z,32.59
2023-05-08T17:11:59.060Z,32.57
2023-05-08T17:14:27.805Z,32.90
2023-05-08T17:16:57.756Z,33.10
2023-05-08T17:19:26.682Z,32.91
2023-05-08T17:21:56.456Z,34.04
2023-05-08T17:24:26.199Z,33.66
2023-05-08T17:26:54.944Z,33.86
2023-05-08T17:29:23.577Z,35.20
2023-05-08T17:31:52.545Z,34.96
2023-05-08T17:34:23.198Z,35.28
2023-05-08T17:36:54.517Z,35.54
2023-05-08T17:39:23.978Z,35.32
2023-05-08T17:41:53.260Z,35.47
2023-05-08T17:44:21.949Z,35.49
2023-05-08T17:46:50.651Z,35.89
2023-05-08T17:49:19.690Z,35.98
2023-05-08T17:51:49.692Z,36.66
2023-05-08T17:54:18.337Z,36.59
2023-05-08T17:56:48.612Z,36.33
2023-05-08T17:59:17.160Z,36.62
2023-05-08T18:01:45.924Z,36.82
2023-05-08T18:04:14.872Z,37.95
2023-05-08T18:06:47.404Z,36.64
2023-05-08T18:09:17.884Z,37.01
2023-05-08T18:11:46.886Z,36.69
2023-05-08T18:14:15.696Z,36.28
2023-05-08T18:16:44.611Z,36.50
2023-05-08T18:19:13.208Z,37.21
2023-05-08T18:21:41.905Z,37.59
2023-05-08T18:24:13.177Z,38.79
2023-05-08T18:26:43.140Z,38.85
2023-05-08T18:29:12.547Z,39.29
2023-05-08T18:31:41.181Z,39.20
2023-05-08T18:34:09.860Z,39.67
2023-05-08T18:36:39.597Z,40.09
2023-05-08T18:39:08.212Z,40.25
2023-05-08T18:41:37.629Z,40.09
2023-05-08T18:44:10.389Z,41.01
2023-05-08T18:46:39.097Z,39.55
2023-05-08T18:49:08.199Z,39.49
2023-05-08T18:51:37.327Z,39.57
2023-05-08T18:54:06.119Z,40.22
2023-05-08T18:56:35.549Z,39.79
2023-05-08T18:59:04.617Z,39.84
2023-05-08T19:01:35.158Z,40.43
2023-05-08T19:04:04.598Z,39.46
2023-05-08T19:06:33.487Z,39.33
2023-05-08T19:09:02.032Z,40.25
2023-05-08T19:11:31.082Z,40.60
2023-05-08T19:13:59.461Z,40.03
2023-05-08T19:16:28.053Z,40.56
2023-05-08T19:18:58.815Z,40.53
2023-05-08T19:21:27.453Z,40.51
2023-05-08T19:23:55.784Z,40.96
2023-05-08T19:26:24.919Z,41.33
2023-05-08T19:28:53.572Z,41.56
2023-05-08T19:31:22.300Z,41.69
2023-05-08T19:33:50.963Z,41.06
2023-05-08T19:36:20.910Z,41.68
2023-05-08T19:38:49.937Z,42.32
2023-05-08T19:41:18.714Z,42.11
2023-05-08T19:43:47.142Z,41.29
2023-05-08T19:46:18.067Z,41.18
2023-05-08T19:48:46.897Z,40.94
2023-05-08T19:51:16.321Z,41.58
2023-05-08T19:53:50.290Z,41.00
2023-05-08T19:56:19.009Z,41.83
2023-05-08T19:58:48.484Z,41.44
2023-05-08T20:01:16.993Z,41.05
2023-05-08T20:03:45.616Z,41.49
2023-05-08T20:06:14.095Z,41.54
2023-05-08T20:08:42.464Z,41.21
2023-05-08T20:11:12.685Z,41.75
2023-05-08T20:13:41.108Z,42.38
2023-05-08T20:16:09.698Z,42.27
2023-05-08T20:18:38.368Z,42.50
2023-05-08T20:21:06.756Z,42.57
2023-05-08T20:23:35.057Z,43.74
2023-05-08T20:26:05.265Z,43.93
2023-05-08T20:28:35.019Z,43.56
2023-05-08T20:31:03.765Z,43.59
2023-05-08T20:33:32.060Z,44.03
2023-05-08T20:36:00.552Z,44.59
2023-05-08T20:38:29.186Z,44.17
2023-05-08T20:41:00.793Z,43.87
2023-05-08T20:43:29.894Z,44.17
2023-05-08T20:45:59.572Z,44.76
2023-05-08T20:48:27.989Z,44.68
2023-05-08T20:50:56.780Z,44.31
2023-05-08T20:53:25.153Z,43.95
2023-05-08T20:56:10.982Z,43.65
2023-05-08T20:58:39.616Z,42.90
2023-05-08T21:01:11.164Z,42.63
2023-05-08T21:03:40.457Z,43.86
2023-05-08T21:06:08.846Z,43.09
2023-05-08T21:08:37.167Z,44.17
2023-05-08T21:11:07.074Z,44.07
2023-05-08T21:13:35.633Z,44.78
2023-05-08T21:16:04.355Z,44.40
2023-05-08T21:18:34.391Z,45.16
2023-05-08T21:21:02.739Z,44.88
2023-05-08T21:23:31.091Z,44.90
2023-05-08T21:26:02.168Z,45.43
2023-05-08T21:28:30.440Z,45.58
2023-05-08T21:30:58.766Z,46.39
2023-05-08T21:33:27.408Z,45.26
2023-05-08T21:35:57.055Z,46.04
2023-05-08T21:38:25.466Z,45.64
2023-05-08T21:40:56.174Z,45.84
2023-05-08T21:43:24.545Z,45.65
2023-05-08T21:45:52.918Z,45.88
2023-05-08T21:48:23.029Z,46.49
2023-05-08T21:50:51.506Z,45.92
2023-05-08T21:53:21.233Z,45.86
2023-05-08T21:55:50.527Z,46.19
2023-05-08T21:58:18.789Z,46.22
2023-05-08T22:00:47.108Z,45.42
2023-05-08T22:03:15.981Z,45.67
2023-05-08T22:05:44.365Z,45.23
2023-05-08T22:08:12.684Z,45.48
2023-05-08T22:10:44.141Z,46.08
2023-05-08T22:13:13.162Z,46.10
2023-05-08T22:15:41.772Z,46.39
2023-05-08T22:18:10.189Z,45.84
2023-05-08T22:20:38.587Z,45.65
2023-05-08T22:23:07.226Z,45.74
2023-05-08T22:25:35.585Z,45.19
2023-05-08T22:28:05.511Z,45.60
2023-05-08T22:30:34.095Z,45.55
2023-05-08T22:33:02.535Z,45.91
2023-05-08T22:35:30.884Z,45.51
2023-05-08T22:37:59.734Z,45.83
2023-05-08T22:40:28.079Z,44.91
2023-05-08T22:42:58.763Z,43.93
2023-05-08T22:45:28.826Z,44.94
2023-05-08T22:47:57.255Z,43.50
2023-05-08T22:50:25.604Z,44.76
2023-05-08T22:52:54.194Z,44.53
2023-05-08T22:55:24.669Z,44.40
2023-05-08T22:57:53.005Z,44.43
2023-05-08T23:00:21.892Z,44.56
2023-05-08T23:02:51.674Z,44.32
2023-05-08T23:05:20.111Z,44.21
2023-05-08T23:07:48.660Z,45.55
2023-05-08T23:10:17.054Z,44.29
2023-05-08T23:12:45.436Z,45.70
2023-05-08T23:15:14.485Z,46.09
2023-05-08T23:17:43.032Z,46.48
2023-05-08T23:20:13.348Z,46.21
2023-05-08T23:22:41.898Z,45.09
2023-05-08T23:25:10.643Z,45.83
2023-05-08T23:27:39.100Z,45.88
2023-05-08T23:30:08.333Z,45.72
2023-05-08T23:32:36.718Z,45.21
2023-05-08T23:35:05.396Z,46.21
2023-05-08T23:37:35.494Z,45.89
2023-05-08T23:40:03.868Z,45.95
2023-05-08T23:42:32.240Z,44.79
2023-05-08T23:45:00.830Z,45.39
2023-05-08T23:47:29.167Z,46.07
2023-05-08T23:49:57.456Z,45.59
2023-05-08T23:52:26.380Z,45.40
2023-05-08T23:54:56.222Z,46.10
2023-05-08T23:57:24.560Z,45.23
2023-05-08T23:59:53.143Z,44.87
